createdAt,value
2017-05-26T00:00:04.643Z,0
2017-05-26T00:01:13.935Z,0
2017-05-26T00:02:22.893Z,0
2017-05-26T00:03:31.855Z,0
2017-05-26T00:04:40.811Z,0
2017-05-26T00:05:49.770Z,0
2017-05-26T00:06:59.023Z,0
2017-05-26T00:08:07.977Z,0
2017-05-26T00:09:16.943Z,0
2017-05-26T00:10:25.900Z,0
2017-05-26T00:11:34.946Z,0
2017-05-26T00:12:44.157Z,0
2017-05-26T00:13:53.182Z,0
2017-05-26T00:15:02.470Z,0
2017-05-26T00:16:11.432Z,0
2017-05-26T00:17:20.394Z,0
2017-05-26T00:18:29.617Z,0
2017-05-26T00:19:38.579Z,0
2017-05-26T00:20:47.540Z,0
2017-05-26T00:21:56.496Z,0
2017-05-26T00:23:05.456Z,0
2017-05-26T00:24:14.750Z,0
2017-05-26T00:25:23.717Z,0
2017-05-26T00:26:32.673Z,0
2017-05-26T00:27:41.638Z,0
2017-05-26T00:28:50.602Z,0
2017-05-26T00:29:59.902Z,0
2017-05-26T00:31:08.860Z,0
2017-05-26T00:32:17.917Z,0
2017-05-26T00:33:26.879Z,0
2017-05-26T00:34:35.835Z,0
2017-05-26T00:35:45.372Z,0
2017-05-26T00:36:54.330Z,0
2017-05-26T00:38:03.301Z,0
2017-05-26T00:39:12.260Z,0
2017-05-26T00:40:21.221Z,0
2017-05-26T00:41:30.425Z,0
2017-05-26T00:42:39.391Z,0
2017-05-26T00:43:48.358Z,0
2017-05-26T00:44:57.323Z,0
2017-05-26T00:46:06.291Z,0
2017-05-26T00:47:15.503Z,0
2017-05-26T00:48:24.462Z,0
2017-05-26T00:49:33.414Z,0
2017-05-26T00:50:42.375Z,0
2017-05-26T00:51:51.345Z,0
2017-05-26T00:53:00.559Z,0
2017-05-26T00:54:09.516Z,0
2017-05-26T00:55:18.481Z,0
2017-05-26T00:56:27.443Z,0
2017-05-26T00:57:36.400Z,0
2017-05-26T00:58:45.608Z,0
2017-05-26T00:59:54.657Z,0
2017-05-26T01:01:03.615Z,0
2017-05-26T01:02:12.583Z,0
2017-05-26T01:03:21.541Z,0
2017-05-26T01:04:30.840Z,0
2017-05-26T01:05:39.799Z,0
2017-05-26T01:06:48.761Z,0
2017-05-26T01:07:58.052Z,0
2017-05-26T01:09:07.010Z,0
2017-05-26T01:10:16.267Z,0
2017-05-26T01:11:25.313Z,0
2017-05-26T01:12:34.613Z,0
2017-05-26T01:13:43.582Z,0
2017-05-26T01:14:52.556Z,0
2017-05-26T01:16:01.766Z,0
2017-05-26T01:17:10.727Z,0
2017-05-26T01:18:19.777Z,0
2017-05-26T01:19:28.746Z,0
2017-05-26T01:20:37.703Z,0
2017-05-26T01:21:46.908Z,0
2017-05-26T01:22:55.873Z,0
2017-05-26T01:24:04.840Z,0
2017-05-26T01:25:13.797Z,0
2017-05-26T01:26:22.757Z,0
2017-05-26T01:27:31.968Z,0
2017-05-26T01:28:41.027Z,0
2017-05-26T01:29:49.993Z,0
2017-05-26T01:30:58.950Z,0
2017-05-26T01:32:07.908Z,0
2017-05-26T01:33:17.166Z,0
2017-05-26T01:34:26.127Z,0
2017-05-26T01:35:35.096Z,0
2017-05-26T01:36:44.050Z,0
2017-05-26T01:37:53.007Z,0
2017-05-26T01:39:02.218Z,0
2017-05-26T01:40:11.181Z,0
2017-05-26T01:41:20.141Z,0
2017-05-26T01:42:29.185Z,0
2017-05-26T01:43:38.210Z,0
2017-05-26T01:44:47.421Z,0
2017-05-26T01:45:56.380Z,0
2017-05-26T01:47:05.339Z,0
2017-05-26T01:48:14.311Z,0
2017-05-26T01:49:23.281Z,0
2017-05-26T01:50:32.542Z,0
2017-05-26T01:51:41.562Z,0
2017-05-26T01:52:50.530Z,0
2017-05-26T01:53:59.495Z,0
2017-05-26T01:55:08.451Z,0
2017-05-26T01:56:17.662Z,0
2017-05-26T01:57:26.620Z,0
2017-05-26T01:58:35.581Z,0
2017-05-26T01:59:44.543Z,0
2017-05-26T02:00:53.503Z,0
2017-05-26T02:02:02.714Z,0
2017-05-26T02:03:11.671Z,0
2017-05-26T02:04:20.686Z,0
2017-05-26T02:05:29.646Z,0
2017-05-26T02:06:38.602Z,0
2017-05-26T02:07:47.866Z,0
2017-05-26T02:08:56.825Z,0
2017-05-26T02:10:05.791Z,0
2017-05-26T02:11:14.749Z,0
2017-05-26T02:12:23.766Z,0
2017-05-26T02:13:32.976Z,0
2017-05-26T02:14:41.939Z,0
2017-05-26T02:15:50.901Z,0
2017-05-26T02:16:59.863Z,0
2017-05-26T02:18:08.831Z,0
2017-05-26T02:19:18.091Z,0
2017-05-26T02:20:27.384Z,0
2017-05-26T02:21:36.342Z,0
2017-05-26T02:22:45.371Z,0
2017-05-26T02:23:54.328Z,0
2017-05-26T02:25:03.549Z,0
2017-05-26T02:26:12.504Z,4
2017-05-26T02:27:21.463Z,0
2017-05-26T02:28:30.422Z,0
2017-05-26T02:29:39.393Z,0
2017-05-26T02:30:48.659Z,4
2017-05-26T02:31:57.621Z,4
2017-05-26T02:33:06.585Z,0
2017-05-26T02:34:15.597Z,4
2017-05-26T02:35:24.551Z,4
2017-05-26T02:36:33.854Z,4
2017-05-26T02:37:42.822Z,4
2017-05-26T02:38:51.777Z,4
2017-05-26T02:40:00.743Z,8
2017-05-26T02:41:09.704Z,8
2017-05-26T02:42:18.914Z,4
2017-05-26T02:43:27.872Z,8
2017-05-26T02:44:36.833Z,8
2017-05-26T02:45:45.882Z,8
2017-05-26T02:46:54.837Z,12
2017-05-26T02:48:04.102Z,12
2017-05-26T02:49:13.060Z,12
2017-05-26T02:50:22.017Z,16
2017-05-26T02:51:30.976Z,20
2017-05-26T02:52:39.932Z,20
2017-05-26T02:53:49.144Z,20
2017-05-26T02:54:58.191Z,24
2017-05-26T02:56:07.155Z,24
2017-05-26T02:57:16.113Z,28
2017-05-26T02:58:25.076Z,28
2017-05-26T02:59:34.295Z,28
2017-05-26T03:00:43.256Z,32
2017-05-26T03:01:52.279Z,36
2017-05-26T03:03:01.239Z,36
2017-05-26T03:04:10.202Z,40
2017-05-26T03:05:19.462Z,44
2017-05-26T03:06:28.418Z,44
2017-05-26T03:07:37.373Z,48
2017-05-26T03:08:46.420Z,52
2017-05-26T03:09:55.474Z,56
2017-05-26T03:11:05.058Z,60
2017-05-26T03:12:14.013Z,60
2017-05-26T03:13:22.976Z,64
2017-05-26T03:14:31.942Z,64
2017-05-26T03:15:40.896Z,72
2017-05-26T03:16:50.104Z,76
2017-05-26T03:17:59.075Z,76
2017-05-26T03:19:08.030Z,84
2017-05-26T03:20:16.993Z,84
2017-05-26T03:21:25.946Z,88
2017-05-26T03:22:35.152Z,92
2017-05-26T03:23:44.435Z,96
2017-05-26T03:24:53.393Z,100
2017-05-26T03:26:02.351Z,100
2017-05-26T03:27:11.310Z,108
2017-05-26T03:28:20.525Z,108
2017-05-26T03:29:29.484Z,116
2017-05-26T03:30:38.829Z,116
2017-05-26T03:31:47.782Z,120
2017-05-26T03:32:56.740Z,128
2017-05-26T03:34:05.949Z,128
2017-05-26T03:35:14.912Z,132
2017-05-26T03:36:23.872Z,136
2017-05-26T03:37:32.835Z,140
2017-05-26T03:38:41.803Z,144
2017-05-26T03:39:51.012Z,148
2017-05-26T03:40:59.971Z,156
2017-05-26T03:42:08.927Z,160
2017-05-26T03:43:17.887Z,164
2017-05-26T03:44:26.846Z,164
2017-05-26T03:45:36.058Z,172
2017-05-26T03:46:45.013Z,172
2017-05-26T03:47:53.982Z,180
2017-05-26T03:49:02.948Z,184
2017-05-26T03:50:11.909Z,188
2017-05-26T03:51:21.115Z,192
2017-05-26T03:52:30.080Z,196
2017-05-26T03:53:39.043Z,200
2017-05-26T03:54:48.001Z,204
2017-05-26T03:55:56.972Z,212
2017-05-26T03:57:06.180Z,212
2017-05-26T03:58:15.137Z,220
2017-05-26T03:59:24.098Z,224
2017-05-26T04:00:33.057Z,228
2017-05-26T04:01:42.102Z,236
2017-05-26T04:02:51.363Z,240
2017-05-26T04:04:00.334Z,244
2017-05-26T04:05:09.299Z,260
2017-05-26T04:06:18.592Z,264
2017-05-26T04:07:27.552Z,272
2017-05-26T04:08:36.820Z,280
2017-05-26T04:09:45.786Z,272
2017-05-26T04:10:54.742Z,276
2017-05-26T04:12:03.700Z,296
2017-05-26T04:13:12.661Z,300
2017-05-26T04:14:21.868Z,292
2017-05-26T04:15:30.889Z,296
2017-05-26T04:16:39.841Z,336
2017-05-26T04:17:48.806Z,332
2017-05-26T04:18:58.096Z,396
2017-05-26T04:20:07.355Z,376
2017-05-26T04:21:16.322Z,384
2017-05-26T04:22:25.279Z,400
2017-05-26T04:23:34.243Z,452
2017-05-26T04:24:43.202Z,396
2017-05-26T04:25:52.463Z,404
2017-05-26T04:27:01.419Z,428
2017-05-26T04:28:10.392Z,388
2017-05-26T04:29:19.350Z,432
2017-05-26T04:30:28.307Z,500
2017-05-26T04:31:37.508Z,448
2017-05-26T04:32:46.475Z,436
2017-05-26T04:33:55.441Z,448
2017-05-26T04:35:04.407Z,444
2017-05-26T04:36:13.367Z,544
2017-05-26T04:37:22.580Z,600
2017-05-26T04:38:31.540Z,692
2017-05-26T04:39:40.497Z,816
2017-05-26T04:40:49.456Z,816
2017-05-26T04:41:58.417Z,784
2017-05-26T04:43:07.621Z,772
2017-05-26T04:44:16.584Z,724
2017-05-26T04:45:25.546Z,744
2017-05-26T04:46:34.505Z,704
2017-05-26T04:47:43.466Z,644
2017-05-26T04:48:52.723Z,612
2017-05-26T04:50:01.688Z,692
2017-05-26T04:51:10.736Z,624
2017-05-26T04:52:19.695Z,612
2017-05-26T04:53:28.655Z,600
2017-05-26T04:54:37.866Z,604
2017-05-26T04:55:46.822Z,604
2017-05-26T04:56:55.778Z,544
2017-05-26T04:58:05.073Z,560
2017-05-26T04:59:14.032Z,604
2017-05-26T05:00:23.378Z,524
2017-05-26T05:01:32.337Z,580
2017-05-26T05:02:41.304Z,584
2017-05-26T05:03:50.271Z,600
2017-05-26T05:04:59.247Z,592
2017-05-26T05:06:08.461Z,560
2017-05-26T05:07:17.421Z,560
2017-05-26T05:08:26.388Z,616
2017-05-26T05:09:35.346Z,656
2017-05-26T05:10:44.309Z,624
2017-05-26T05:11:53.567Z,672
2017-05-26T05:13:02.523Z,624
2017-05-26T05:14:11.574Z,616
2017-05-26T05:15:20.540Z,620
2017-05-26T05:16:29.508Z,600
2017-05-26T05:17:38.720Z,568
2017-05-26T05:18:47.688Z,568
2017-05-26T05:19:56.651Z,548
2017-05-26T05:21:05.613Z,528
2017-05-26T05:22:14.565Z,580
2017-05-26T05:23:23.789Z,536
2017-05-26T05:24:32.755Z,560
2017-05-26T05:25:41.711Z,536
2017-05-26T05:26:50.758Z,532
2017-05-26T05:27:59.719Z,604
2017-05-26T05:29:08.929Z,536
2017-05-26T05:30:17.888Z,612
2017-05-26T05:31:26.843Z,608
2017-05-26T05:32:35.808Z,692
2017-05-26T05:33:44.774Z,628
2017-05-26T05:34:54.309Z,620
2017-05-26T05:36:03.265Z,624
2017-05-26T05:37:12.223Z,592
2017-05-26T05:38:21.190Z,576
2017-05-26T05:39:30.153Z,648
2017-05-26T05:40:39.366Z,664
2017-05-26T05:41:48.379Z,692
2017-05-26T05:42:57.343Z,628
2017-05-26T05:44:06.303Z,652
2017-05-26T05:45:15.261Z,704
2017-05-26T05:46:24.470Z,668
2017-05-26T05:47:33.428Z,680
2017-05-26T05:48:42.387Z,768
2017-05-26T05:49:51.351Z,740
2017-05-26T05:51:00.315Z,784
2017-05-26T05:52:09.526Z,728
2017-05-26T05:53:18.492Z,772
2017-05-26T05:54:27.452Z,788
2017-05-26T05:55:36.408Z,712
2017-05-26T05:56:45.367Z,716
2017-05-26T05:57:54.662Z,776
2017-05-26T05:59:03.622Z,788
2017-05-26T06:00:12.580Z,840
2017-05-26T06:01:21.539Z,796
2017-05-26T06:02:30.499Z,788
2017-05-26T06:03:39.705Z,832
2017-05-26T06:04:48.678Z,848
2017-05-26T06:05:57.726Z,796
2017-05-26T06:07:06.685Z,880
2017-05-26T06:08:15.647Z,836
2017-05-26T06:09:24.856Z,728
2017-05-26T06:10:33.817Z,696
2017-05-26T06:11:42.774Z,756
2017-05-26T06:12:51.740Z,840
2017-05-26T06:14:00.702Z,748
2017-05-26T06:15:10.239Z,652
2017-05-26T06:16:19.198Z,684
2017-05-26T06:17:28.165Z,704
2017-05-26T06:18:37.126Z,744
2017-05-26T06:19:46.080Z,700
2017-05-26T06:20:55.291Z,724
2017-05-26T06:22:04.249Z,676
2017-05-26T06:23:13.207Z,660
2017-05-26T06:24:22.168Z,636
2017-05-26T06:25:31.128Z,752
2017-05-26T06:26:40.334Z,732
2017-05-26T06:27:49.293Z,732
2017-05-26T06:28:58.253Z,740
2017-05-26T06:30:07.212Z,716
2017-05-26T06:31:16.172Z,760
2017-05-26T06:32:25.388Z,700
2017-05-26T06:33:34.349Z,748
2017-05-26T06:34:43.365Z,768
2017-05-26T06:35:52.331Z,764
2017-05-26T06:37:01.294Z,856
2017-05-26T06:38:10.561Z,840
2017-05-26T06:39:19.522Z,752
2017-05-26T06:40:28.481Z,656
2017-05-26T06:41:37.439Z,672
2017-05-26T06:42:46.401Z,660
2017-05-26T06:43:55.610Z,668
2017-05-26T06:45:04.894Z,704
2017-05-26T06:46:13.855Z,672
2017-05-26T06:47:22.816Z,720
2017-05-26T06:48:31.779Z,716
2017-05-26T06:49:40.992Z,692
2017-05-26T06:50:49.947Z,688
2017-05-26T06:51:58.903Z,744
2017-05-26T06:53:07.862Z,768
2017-05-26T06:54:16.834Z,772
2017-05-26T06:55:26.039Z,716
2017-05-26T06:56:34.997Z,756
2017-05-26T06:57:43.967Z,792
2017-05-26T06:58:52.946Z,860
2017-05-26T07:00:01.908Z,728
2017-05-26T07:01:11.118Z,664
2017-05-26T07:02:20.081Z,640
2017-05-26T07:03:29.131Z,680
2017-05-26T07:04:38.087Z,660
2017-05-26T07:05:47.049Z,656
2017-05-26T07:06:56.267Z,660
2017-05-26T07:08:05.226Z,608
2017-05-26T07:09:14.185Z,612
2017-05-26T07:10:23.234Z,616
2017-05-26T07:11:32.198Z,640
2017-05-26T07:12:41.413Z,640
2017-05-26T07:13:50.374Z,656
2017-05-26T07:14:59.338Z,664
2017-05-26T07:16:08.298Z,700
2017-05-26T07:17:17.256Z,796
2017-05-26T07:18:26.515Z,800
2017-05-26T07:19:35.473Z,760
2017-05-26T07:20:44.435Z,812
2017-05-26T07:21:53.395Z,760
2017-05-26T07:23:02.358Z,784
2017-05-26T07:24:11.568Z,888
2017-05-26T07:25:20.527Z,892
2017-05-26T07:26:29.488Z,848
2017-05-26T07:27:38.451Z,904
2017-05-26T07:28:47.418Z,892
2017-05-26T07:29:56.635Z,812
2017-05-26T07:31:05.588Z,880
2017-05-26T07:32:14.553Z,868
2017-05-26T07:33:23.510Z,832
2017-05-26T07:34:32.472Z,964
2017-05-26T07:35:41.734Z,1032
2017-05-26T07:36:50.690Z,1160
2017-05-26T07:37:59.654Z,996
2017-05-26T07:39:08.621Z,1228
2017-05-26T07:40:17.579Z,1328
2017-05-26T07:41:26.836Z,1616
2017-05-26T07:42:35.793Z,1324
2017-05-26T07:43:44.762Z,1412
2017-05-26T07:44:53.730Z,1384
2017-05-26T07:46:02.695Z,1580
2017-05-26T07:47:11.911Z,1348
2017-05-26T07:48:20.873Z,1220
2017-05-26T07:49:29.834Z,1312
2017-05-26T07:50:38.791Z,1104
2017-05-26T07:51:47.749Z,1252
2017-05-26T07:52:56.958Z,1296
2017-05-26T07:54:06.254Z,1304
2017-05-26T07:55:15.309Z,1168
2017-05-26T07:56:24.270Z,1448
2017-05-26T07:57:33.229Z,1388
2017-05-26T07:58:42.439Z,1296
2017-05-26T07:59:51.401Z,1216
2017-05-26T08:01:00.361Z,1420
2017-05-26T08:02:09.321Z,1916
2017-05-26T08:03:18.375Z,1888
2017-05-26T08:04:27.638Z,2212
2017-05-26T08:05:36.598Z,2656
2017-05-26T08:06:45.564Z,2332
2017-05-26T08:07:54.524Z,2408
2017-05-26T08:09:03.488Z,2100
2017-05-26T08:10:12.747Z,2172
2017-05-26T08:11:21.716Z,1796
2017-05-26T08:12:30.761Z,1932
2017-05-26T08:13:39.719Z,2128
2017-05-26T08:14:48.690Z,1940
2017-05-26T08:15:57.980Z,2112
2017-05-26T08:17:06.942Z,2296
2017-05-26T08:18:15.900Z,1940
2017-05-26T08:19:24.867Z,1556
2017-05-26T08:20:33.829Z,2304
2017-05-26T08:21:43.038Z,2876
2017-05-26T08:22:52.412Z,3352
2017-05-26T08:24:01.373Z,2444
2017-05-26T08:25:10.421Z,2060
2017-05-26T08:26:19.376Z,1764
2017-05-26T08:27:28.588Z,2284
2017-05-26T08:28:37.546Z,2884
2017-05-26T08:29:46.508Z,1672
2017-05-26T08:30:55.557Z,1972
2017-05-26T08:32:04.519Z,2060
2017-05-26T08:33:13.731Z,1924
2017-05-26T08:34:22.698Z,2572
2017-05-26T08:35:31.657Z,2616
2017-05-26T08:36:40.619Z,2600
2017-05-26T08:37:49.672Z,3464
2017-05-26T08:38:58.888Z,3540
2017-05-26T08:40:08.165Z,2916
2017-05-26T08:41:17.133Z,2704
2017-05-26T08:42:26.099Z,2676
2017-05-26T08:43:35.061Z,1912
2017-05-26T08:44:44.320Z,2344
2017-05-26T08:45:53.279Z,2212
2017-05-26T08:47:02.246Z,1992
2017-05-26T08:48:11.204Z,1712
2017-05-26T08:49:20.492Z,2556
2017-05-26T08:50:29.753Z,4884
2017-05-26T08:51:38.714Z,2780
2017-05-26T08:52:47.678Z,3068
2017-05-26T08:53:56.644Z,2564
2017-05-26T08:55:05.602Z,4032
2017-05-26T08:56:14.815Z,4000
2017-05-26T08:57:23.862Z,5868
2017-05-26T08:58:32.831Z,4080
2017-05-26T08:59:41.789Z,6476
2017-05-26T09:00:50.753Z,3140
2017-05-26T09:02:00.037Z,3968
2017-05-26T09:03:08.999Z,1820
2017-05-26T09:04:17.959Z,2408
2017-05-26T09:05:26.918Z,3228
2017-05-26T09:06:35.873Z,3600
2017-05-26T09:07:45.135Z,3108
2017-05-26T09:08:54.095Z,4112
2017-05-26T09:10:03.061Z,3108
2017-05-26T09:11:12.021Z,2332
2017-05-26T09:12:21.072Z,2188
2017-05-26T09:13:30.290Z,2904
2017-05-26T09:14:39.246Z,4884
2017-05-26T09:15:48.207Z,3500
2017-05-26T09:16:57.166Z,2344
2017-05-26T09:18:06.128Z,3500
2017-05-26T09:19:15.391Z,3116
2017-05-26T09:20:24.349Z,2408
2017-05-26T09:21:33.309Z,3584
2017-05-26T09:22:42.270Z,4164
2017-05-26T09:23:51.233Z,5076
2017-05-26T09:25:00.451Z,3752
2017-05-26T09:26:09.418Z,4364
2017-05-26T09:27:18.384Z,3996
2017-05-26T09:28:27.355Z,3708
2017-05-26T09:29:36.314Z,2920
2017-05-26T09:30:45.582Z,4148
2017-05-26T09:31:54.543Z,3188
2017-05-26T09:33:03.518Z,2324
2017-05-26T09:34:12.481Z,2448
2017-05-26T09:35:21.439Z,2208
2017-05-26T09:36:30.655Z,2328
2017-05-26T09:37:39.614Z,3688
2017-05-26T09:38:48.577Z,3188
2017-05-26T09:39:57.546Z,2996
2017-05-26T09:41:06.657Z,2784
2017-05-26T09:42:15.869Z,3744
2017-05-26T09:43:24.881Z,4892
2017-05-26T09:44:33.842Z,3676
2017-05-26T09:45:42.807Z,3040
2017-05-26T09:46:51.769Z,3516
2017-05-26T09:48:01.032Z,3008
2017-05-26T09:49:09.997Z,2600
2017-05-26T09:50:18.963Z,3412
2017-05-26T09:51:27.925Z,4232
2017-05-26T09:52:36.885Z,4284
2017-05-26T09:53:46.153Z,4880
2017-05-26T09:54:55.111Z,3588
2017-05-26T09:56:04.069Z,3884
2017-05-26T09:57:13.035Z,3816
2017-05-26T09:58:22.002Z,3060
2017-05-26T09:59:31.224Z,2812
2017-05-26T10:00:40.189Z,2388
2017-05-26T10:01:49.517Z,2664
2017-05-26T10:02:58.500Z,2516
2017-05-26T10:04:07.458Z,2468
2017-05-26T10:05:16.722Z,2216
2017-05-26T10:06:25.683Z,2312
2017-05-26T10:07:34.966Z,2428
2017-05-26T10:08:43.933Z,2160
2017-05-26T10:09:52.902Z,2316
2017-05-26T10:11:02.166Z,3432
2017-05-26T10:12:11.124Z,3080
2017-05-26T10:13:20.092Z,3476
2017-05-26T10:14:29.061Z,2152
2017-05-26T10:15:38.025Z,3876
2017-05-26T10:16:47.245Z,4268
2017-05-26T10:17:56.304Z,4076
2017-05-26T10:19:05.271Z,3740
2017-05-26T10:20:14.234Z,3428
2017-05-26T10:21:23.193Z,3128
2017-05-26T10:22:32.412Z,2576
2017-05-26T10:23:41.469Z,2108
2017-05-26T10:24:50.522Z,1740
2017-05-26T10:25:59.485Z,1980
2017-05-26T10:27:08.448Z,1976
2017-05-26T10:28:17.717Z,1584
2017-05-26T10:29:26.684Z,1276
2017-05-26T10:30:35.646Z,2048
2017-05-26T10:31:44.609Z,1972
2017-05-26T10:32:53.577Z,1676
2017-05-26T10:34:02.788Z,1076
2017-05-26T10:35:12.082Z,1096
2017-05-26T10:36:21.044Z,2336
2017-05-26T10:37:30.002Z,1280
2017-05-26T10:38:38.968Z,1832
2017-05-26T10:39:48.232Z,1848
2017-05-26T10:40:57.197Z,1896
2017-05-26T10:42:06.160Z,1796
2017-05-26T10:43:15.128Z,1816
2017-05-26T10:44:24.095Z,2560
2017-05-26T10:45:33.366Z,2724
2017-05-26T10:46:42.337Z,2556
2017-05-26T10:47:51.305Z,2388
2017-05-26T10:49:00.277Z,3404
2017-05-26T10:50:09.249Z,3552
2017-05-26T10:51:18.518Z,2816
2017-05-26T10:52:27.536Z,2276
2017-05-26T10:53:36.502Z,2164
2017-05-26T10:54:45.466Z,2552
2017-05-26T10:55:54.430Z,3156
2017-05-26T10:57:03.639Z,2912
2017-05-26T10:58:12.612Z,2484
2017-05-26T10:59:21.580Z,2288
2017-05-26T11:00:30.544Z,2472
2017-05-26T11:01:39.506Z,3364
2017-05-26T11:02:48.770Z,2656
2017-05-26T11:03:57.728Z,2916
2017-05-26T11:05:06.692Z,3248
2017-05-26T11:06:15.652Z,2868
2017-05-26T11:07:24.682Z,2872
2017-05-26T11:08:33.895Z,2644
2017-05-26T11:09:42.864Z,1448
2017-05-26T11:10:51.829Z,1816
2017-05-26T11:12:00.798Z,1044
2017-05-26T11:13:09.765Z,908
2017-05-26T11:14:19.031Z,744
2017-05-26T11:15:27.994Z,1088
2017-05-26T11:16:36.960Z,840
2017-05-26T11:17:45.922Z,1128
2017-05-26T11:18:54.888Z,1856
2017-05-26T11:20:04.105Z,1688
2017-05-26T11:21:13.388Z,2184
2017-05-26T11:22:22.444Z,2052
2017-05-26T11:23:32.072Z,2008
2017-05-26T11:24:41.041Z,1884
2017-05-26T11:25:50.308Z,1684
2017-05-26T11:26:59.270Z,1808
2017-05-26T11:28:08.247Z,1656
2017-05-26T11:29:17.212Z,1992
2017-05-26T11:30:26.177Z,2260
2017-05-26T11:31:35.394Z,3112
2017-05-26T11:32:44.358Z,3132
2017-05-26T11:33:53.337Z,2912
2017-05-26T11:35:02.947Z,2672
2017-05-26T11:36:11.914Z,2988
2017-05-26T11:37:21.178Z,2756
2017-05-26T11:38:30.149Z,1716
2017-05-26T11:39:39.118Z,844
2017-05-26T11:40:48.173Z,904
2017-05-26T11:41:57.227Z,1948
2017-05-26T11:43:06.445Z,2536
2017-05-26T11:44:15.418Z,2024
2017-05-26T11:45:24.553Z,1560
2017-05-26T11:46:33.521Z,1628
2017-05-26T11:47:42.492Z,1672
2017-05-26T11:48:51.764Z,1592
2017-05-26T11:50:00.729Z,1652
2017-05-26T11:51:09.710Z,1712
2017-05-26T11:52:18.674Z,1948
2017-05-26T11:53:27.656Z,3232
2017-05-26T11:54:36.871Z,2192
2017-05-26T11:55:45.846Z,2720
2017-05-26T11:56:55.536Z,2848
2017-05-26T11:58:04.498Z,2160
2017-05-26T11:59:13.460Z,1964
2017-05-26T12:00:22.777Z,1964
2017-05-26T12:01:31.748Z,1000
2017-05-26T12:02:40.711Z,1024
2017-05-26T12:03:49.733Z,1456
2017-05-26T12:04:58.699Z,1452
2017-05-26T12:06:07.910Z,2044
2017-05-26T12:07:16.873Z,1792
2017-05-26T12:08:25.834Z,1924
2017-05-26T12:09:34.807Z,1872
2017-05-26T12:10:43.766Z,1960
2017-05-26T12:11:52.980Z,1740
2017-05-26T12:13:01.956Z,2352
2017-05-26T12:14:10.914Z,1760
2017-05-26T12:15:19.880Z,1528
2017-05-26T12:16:28.842Z,2588
2017-05-26T12:17:38.055Z,1360
2017-05-26T12:18:47.027Z,2528
2017-05-26T12:19:56.723Z,2852
2017-05-26T12:21:05.688Z,2440
2017-05-26T12:22:14.654Z,2068
2017-05-26T12:23:23.865Z,1948
2017-05-26T12:24:32.827Z,1976
2017-05-26T12:25:41.789Z,2372
2017-05-26T12:26:50.758Z,2240
2017-05-26T12:27:59.724Z,2848
2017-05-26T12:29:08.983Z,1772
2017-05-26T12:30:17.954Z,1584
2017-05-26T12:31:26.913Z,1756
2017-05-26T12:32:35.877Z,2420
2017-05-26T12:33:44.846Z,1944
2017-05-26T12:34:54.113Z,1904
2017-05-26T12:36:03.082Z,1664
2017-05-26T12:37:12.051Z,2136
2017-05-26T12:38:21.016Z,2188
2017-05-26T12:39:29.974Z,2228
2017-05-26T12:40:39.191Z,2212
2017-05-26T12:41:48.247Z,2124
2017-05-26T12:42:57.218Z,2436
2017-05-26T12:44:06.186Z,2412
2017-05-26T12:45:15.146Z,2544
2017-05-26T12:46:24.407Z,1856
2017-05-26T12:47:33.372Z,2600
2017-05-26T12:48:43.082Z,1244
2017-05-26T12:49:52.051Z,2064
2017-05-26T12:51:01.015Z,2492
2017-05-26T12:52:10.229Z,2260
2017-05-26T12:53:19.201Z,1868
2017-05-26T12:54:28.164Z,1920
2017-05-26T12:55:37.127Z,2944
2017-05-26T12:56:46.179Z,2204
2017-05-26T12:57:55.726Z,2132
2017-05-26T12:59:04.692Z,2048
2017-05-26T13:00:13.671Z,1956
2017-05-26T13:01:22.635Z,1720
2017-05-26T13:02:31.602Z,1420
2017-05-26T13:03:40.818Z,1504
2017-05-26T13:04:49.793Z,1192
2017-05-26T13:05:58.761Z,816
2017-05-26T13:07:07.726Z,784
2017-05-26T13:08:16.690Z,804
2017-05-26T13:09:25.958Z,1692
2017-05-26T13:10:34.931Z,1788
2017-05-26T13:11:43.899Z,1868
2017-05-26T13:12:52.865Z,1204
2017-05-26T13:14:01.833Z,1328
2017-05-26T13:15:11.098Z,1184
2017-05-26T13:16:20.075Z,1140
2017-05-26T13:17:29.042Z,1188
2017-05-26T13:18:38.009Z,1352
2017-05-26T13:19:47.292Z,1184
2017-05-26T13:20:56.507Z,728
2017-05-26T13:22:05.471Z,800
2017-05-26T13:23:14.525Z,636
2017-05-26T13:24:23.488Z,608
2017-05-26T13:25:32.453Z,584
2017-05-26T13:26:41.760Z,628
2017-05-26T13:27:51.059Z,924
2017-05-26T13:29:00.362Z,640
2017-05-26T13:30:09.329Z,948
2017-05-26T13:31:18.302Z,660
2017-05-26T13:32:27.513Z,1404
2017-05-26T13:33:36.475Z,1804
2017-05-26T13:34:45.826Z,1688
2017-05-26T13:35:54.788Z,1840
2017-05-26T13:37:03.767Z,2636
2017-05-26T13:38:13.029Z,2356
2017-05-26T13:39:22.055Z,1884
2017-05-26T13:40:31.018Z,752
2017-05-26T13:41:40.039Z,568
2017-05-26T13:42:49.003Z,1528
2017-05-26T13:43:58.266Z,1476
2017-05-26T13:45:07.227Z,1508
2017-05-26T13:46:16.186Z,1472
2017-05-26T13:47:25.151Z,1508
2017-05-26T13:48:34.116Z,1540
2017-05-26T13:49:43.330Z,1540
2017-05-26T13:50:52.354Z,1532
2017-05-26T13:52:01.318Z,1560
2017-05-26T13:53:10.368Z,1104
2017-05-26T13:54:19.330Z,748
2017-05-26T13:55:28.540Z,568
2017-05-26T13:56:37.505Z,552
2017-05-26T13:57:46.467Z,544
2017-05-26T13:58:55.439Z,1436
2017-05-26T14:00:04.404Z,1472
2017-05-26T14:01:13.672Z,1528
2017-05-26T14:02:22.634Z,1540
2017-05-26T14:03:31.594Z,1516
2017-05-26T14:04:40.564Z,1556
2017-05-26T14:05:49.935Z,1600
2017-05-26T14:06:59.197Z,1708
2017-05-26T14:08:08.162Z,1640
2017-05-26T14:09:17.124Z,556
2017-05-26T14:10:26.174Z,500
2017-05-26T14:11:35.138Z,852
2017-05-26T14:12:44.407Z,1480
2017-05-26T14:13:53.372Z,1408
2017-05-26T14:15:02.340Z,1412
2017-05-26T14:16:11.313Z,552
2017-05-26T14:17:20.276Z,508
2017-05-26T14:18:29.490Z,1392
2017-05-26T14:19:38.446Z,1352
2017-05-26T14:20:47.501Z,1340
2017-05-26T14:21:56.466Z,1368
2017-05-26T14:23:05.429Z,1376
2017-05-26T14:24:14.642Z,1376
2017-05-26T14:25:23.606Z,1376
2017-05-26T14:26:32.634Z,1396
2017-05-26T14:27:41.682Z,552
2017-05-26T14:28:50.646Z,532
2017-05-26T14:30:00.032Z,1356
2017-05-26T14:31:08.996Z,520
2017-05-26T14:32:17.967Z,460
2017-05-26T14:33:26.933Z,416
2017-05-26T14:34:35.900Z,1324
2017-05-26T14:35:45.206Z,404
2017-05-26T14:36:54.171Z,668
2017-05-26T14:38:03.132Z,1280
2017-05-26T14:39:12.097Z,1292
2017-05-26T14:40:21.062Z,1304
2017-05-26T14:41:30.279Z,1336
2017-05-26T14:42:39.243Z,1356
2017-05-26T14:43:48.212Z,1360
2017-05-26T14:44:57.174Z,1368
2017-05-26T14:46:06.131Z,1364
2017-05-26T14:47:15.441Z,1412
2017-05-26T14:48:24.497Z,1448
2017-05-26T14:49:33.531Z,1564
2017-05-26T14:50:42.490Z,1448
2017-05-26T14:51:51.454Z,1544
2017-05-26T14:53:00.667Z,760
2017-05-26T14:54:09.640Z,600
2017-05-26T14:55:18.603Z,464
2017-05-26T14:56:27.902Z,420
2017-05-26T14:57:36.945Z,1220
2017-05-26T14:58:46.156Z,1244
2017-05-26T14:59:55.123Z,1216
2017-05-26T15:01:04.177Z,1252
2017-05-26T15:02:13.147Z,1252
2017-05-26T15:03:22.111Z,1276
2017-05-26T15:04:31.377Z,1288
2017-05-26T15:05:40.340Z,1304
2017-05-26T15:06:49.303Z,1468
2017-05-26T15:07:58.270Z,1604
2017-05-26T15:09:07.237Z,892
2017-05-26T15:10:16.586Z,832
2017-05-26T15:11:25.556Z,480
2017-05-26T15:12:34.541Z,1072
2017-05-26T15:13:43.507Z,860
2017-05-26T15:14:52.469Z,1024
2017-05-26T15:16:01.767Z,1188
2017-05-26T15:17:10.732Z,408
2017-05-26T15:18:19.705Z,380
2017-05-26T15:19:28.670Z,384
2017-05-26T15:20:37.952Z,420
2017-05-26T15:21:47.168Z,424
2017-05-26T15:22:56.134Z,1160
2017-05-26T15:24:05.102Z,1132
2017-05-26T15:25:14.068Z,1136
2017-05-26T15:26:23.206Z,1108
2017-05-26T15:27:32.468Z,1088
2017-05-26T15:28:41.433Z,1068
2017-05-26T15:29:50.488Z,1076
2017-05-26T15:30:59.872Z,1092
2017-05-26T15:32:08.923Z,1112
2017-05-26T15:33:18.140Z,1104
2017-05-26T15:34:27.188Z,1096
2017-05-26T15:35:36.235Z,1124
2017-05-26T15:36:45.206Z,1148
2017-05-26T15:37:54.257Z,1224
2017-05-26T15:39:03.470Z,1232
2017-05-26T15:40:12.438Z,1472
2017-05-26T15:41:21.401Z,1520
2017-05-26T15:42:30.362Z,1368
2017-05-26T15:43:39.419Z,1608
2017-05-26T15:44:48.684Z,1940
2017-05-26T15:45:57.712Z,1924
2017-05-26T15:47:06.766Z,1912
2017-05-26T15:48:15.818Z,1656